Stations météo

réclame
Mon MeteoGroup
Zeebrugge, Belgique (6418): Température de l'air & dewpoint: 26.05.2020 01:00:00 - 01.06.2020 01:00:00 (CEST)Zeebrugge, Belgique (6418): Vitesse du vent & gusts: 26.05.2020 01:00:00 - 01.06.2020 01:00:00 (CEST)Zeebrugge, Belgique (6418): Direction du vent: 26.05.2020 01:00:00 - 01.06.2020 01:00:00 (CEST)Zeebrugge, Belgique (6418): reduced air pressure: 26.05.2020 01:00:00 - 01.06.2020 01:00:00 (CEST)Zeebrugge, Belgique (6418): Ensoleillement: 26.05.2020 01:00:00 - 01.06.2020 01:00:00 (CEST)Zeebrugge, Belgique (6418): Quantités de précipitations: 26.05.2020 01:00:00 - 01.06.2020 01:00:00 (CEST)
Date & Time tt [°C] td [°C] ff [km/h] ff [knt] fx [km/h] fx [knt] dd ppp [hPa] sd [min] rr [mm]
01.06.2020 01:00:00 - - - - - - - - - -
01.06.2020 00:00:00 17,5 12,4 20 11 26 14 NE 1022,3 0 0,0
31.05.2020 23:00:00 16,7 13,0 19 10 25 13 NNE 1022,2 0 0,0
31.05.2020 22:00:00 16,9 13,2 23 12 29 16 NNE 1021,9 24 0,0
31.05.2020 21:00:00 16,8 13,0 25 14 37 20 NNE 1021,6 56 0,0
31.05.2020 20:00:00 16,6 12,6 32 18 39 21 NNE 1021,4 60 0,0
31.05.2020 19:00:00 16,7 11,7 34 18 43 23 N 1021,4 60 0,0
31.05.2020 18:00:00 17,6 11,3 32 17 40 21 NNE 1021,6 60 0,0
31.05.2020 17:00:00 19,3 7,9 25 13 35 19 NE 1021,9 60 0,0
31.05.2020 16:00:00 19,2 6,2 24 13 38 20 NE 1022,4 60 0,0
31.05.2020 15:00:00 19,3 6,2 28 15 37 20 NE 1022,6 60 0,0
31.05.2020 14:00:00 19,3 6,6 29 16 43 23 NE 1023,0 60 0,0
31.05.2020 13:00:00 19,3 7,5 24 13 33 18 NE 1023,1 60 0,0
31.05.2020 12:00:00 18,8 7,0 26 14 36 19 NE 1023,4 60 0,0
31.05.2020 11:00:00 18,6 6,8 25 13 32 18 NE 1023,6 60 0,0
31.05.2020 10:00:00 18,0 9,1 15 8 26 14 NE 1023,5 60 0,0
31.05.2020 09:00:00 17,1 7,9 18 10 27 14 E 1023,3 60 0,0
31.05.2020 08:00:00 16,1 8,6 14 8 24 13 ENE 1023,3 60 0,0
31.05.2020 07:00:00 15,3 8,1 21 12 29 16 ENE 1022,8 48 0,0
31.05.2020 06:00:00 15,8 7,5 23 12 34 18 E 1022,6 0 0,0
31.05.2020 05:00:00 16,0 8,1 19 11 24 13 E 1022,4 0 0,0
31.05.2020 04:00:00 16,3 8,7 17 9 23 12 ENE 1022,3 0 0,0
31.05.2020 03:00:00 16,7 9,0 19 10 29 16 E 1022,2 0 0,0
31.05.2020 02:00:00 17,0 10,8 22 12 33 18 E 1022,3 0 0,0
31.05.2020 01:00:00 17,3 10,9 26 14 38 21 NE 1022,3 0 0,0
31.05.2020 00:00:00 17,4 11,5 25 13 38 21 NE 1022,1 0 0,0
30.05.2020 23:00:00 16,8 12,4 28 15 42 23 NE 1021,8 0 0,0
30.05.2020 22:00:00 16,8 11,8 32 17 44 24 NNE 1021,3 34 0,0
30.05.2020 21:00:00 17,0 11,6 36 20 47 26 NNE 1021,1 60 0,0
30.05.2020 20:00:00 17,4 11,6 40 21 49 26 NNE 1021,2 60 0,0
30.05.2020 19:00:00 17,5 11,1 38 21 49 26 NNE 1021,3 60 0,0
30.05.2020 18:00:00 17,8 11,0 38 20 48 26 NNE 1021,8 60 0,0
30.05.2020 17:00:00 18,0 11,6 35 19 42 23 NNE 1022,0 60 0,0
30.05.2020 16:00:00 21,0 5,9 28 15 36 20 NE 1022,4 60 0,0
30.05.2020 15:00:00 20,6 6,3 25 13 38 21 NE 1022,7 60 0,0
30.05.2020 14:00:00 20,4 5,5 29 16 41 22 NE 1023,2 60 0,0
30.05.2020 13:00:00 20,3 6,3 25 14 37 20 NE 1023,4 60 0,0
30.05.2020 12:00:00 19,3 7,6 24 13 33 18 NE 1023,7 60 0,0
30.05.2020 11:00:00 18,1 9,1 21 11 28 15 NE 1023,9 60 0,0
30.05.2020 10:00:00 16,8 8,7 19 11 28 15 ENE 1024,1 60 0,0
30.05.2020 09:00:00 15,4 9,0 20 11 30 16 E 1024,2 60 0,0
30.05.2020 08:00:00 14,7 8,9 25 14 31 17 E 1023,9 60 0,0
30.05.2020 07:00:00 14,5 9,3 21 11 26 14 E 1023,8 51 0,0
30.05.2020 06:00:00 14,6 9,3 21 11 26 14 ENE 1023,9 0 0,0
30.05.2020 05:00:00 14,9 10,0 21 12 29 15 E 1024,0 0 0,0
30.05.2020 04:00:00 15,0 10,8 23 12 30 16 E 1024,1 0 0,0
30.05.2020 03:00:00 15,8 11,9 20 11 29 16 ENE 1024,4 0 0,0
30.05.2020 02:00:00 15,9 11,9 22 12 34 18 NE 1024,6 0 0,0
30.05.2020 01:00:00 16,2 12,2 21 11 32 18 NE 1024,6 0 0,0
30.05.2020 00:00:00 16,0 13,1 22 12 34 18 NE 1024,6 0 0,0
29.05.2020 23:00:00 15,6 12,8 29 15 40 22 NNE 1024,6 0 0,0
29.05.2020 22:00:00 15,2 12,1 29 16 41 22 NNE 1024,6 31 0,0
29.05.2020 21:00:00 15,3 11,5 32 17 42 23 NNE 1024,7 60 0,0
29.05.2020 20:00:00 15,4 11,0 29 16 39 21 NNE 1025,2 60 0,0
29.05.2020 19:00:00 15,3 10,7 32 18 42 23 NNE 1025,7 60 0,0
29.05.2020 18:00:00 15,2 10,7 34 18 43 23 NNE 1026,1 60 0,0
29.05.2020 17:00:00 15,3 10,7 31 17 42 23 NNE 1026,6 60 0,0
29.05.2020 16:00:00 15,1 10,3 36 20 44 24 NNE 1027,1 60 0,0
29.05.2020 15:00:00 15,4 10,4 31 17 36 20 NNE 1027,7 60 0,0
29.05.2020 14:00:00 15,3 10,2 29 16 35 19 NNE 1028,3 60 0,0
29.05.2020 13:00:00 15,7 9,9 29 15 34 18 NNE 1029,0 60 0,0
29.05.2020 12:00:00 15,9 9,1 19 10 26 14 NNE 1029,4 60 0,0
29.05.2020 11:00:00 15,2 8,6 20 11 25 14 NE 1029,5 60 0,0
29.05.2020 10:00:00 14,0 8,8 18 10 24 13 ENE 1029,9 60 0,0
29.05.2020 09:00:00 12,8 7,9 18 10 26 14 ENE 1029,9 60 0,0
29.05.2020 08:00:00 11,9 7,0 25 14 33 18 E 1029,8 60 0,0
29.05.2020 07:00:00 12,1 6,9 24 13 33 18 ENE 1030,3 49 0,0
29.05.2020 06:00:00 12,6 7,1 24 13 35 19 ENE 1030,1 0 0,0
29.05.2020 05:00:00 12,7 6,8 26 14 34 19 E 1030,1 0 0,0
29.05.2020 04:00:00 13,4 7,1 23 12 32 17 E 1030,3 0 0,0
29.05.2020 03:00:00 14,1 7,2 26 14 38 21 ENE 1030,6 0 0,1
29.05.2020 02:00:00 14,6 8,2 25 14 37 20 ENE 1030,6 0 0,1
29.05.2020 01:00:00 14,9 9,0 26 14 37 20 NE 1031,0 0 0,0
29.05.2020 00:00:00 15,0 9,9 31 17 46 25 NE 1031,1 0 0,0
28.05.2020 23:00:00 15,0 10,5 36 19 46 25 NE 1031,1 0 0,0
28.05.2020 22:00:00 15,1 10,5 41 22 51 28 NNE 1030,8 31 0,1
28.05.2020 21:00:00 15,2 10,6 43 23 55 30 NNE 1031,1 60 0,0
28.05.2020 20:00:00 15,0 10,6 43 23 54 29 NNE 1031,4 60 0,0
28.05.2020 19:00:00 15,2 10,7 41 22 53 28 NNE 1031,7 60 0,0
28.05.2020 18:00:00 15,0 10,6 41 22 51 27 NNE 1032,2 60 0,0
28.05.2020 17:00:00 15,3 10,5 37 20 49 27 NNE 1032,7 60 0,0
28.05.2020 16:00:00 15,3 10,4 38 21 45 25 NNE 1033,2 60 0,0
28.05.2020 15:00:00 15,2 10,2 35 19 42 23 NNE 1033,4 60 0,0
28.05.2020 14:00:00 15,7 9,8 28 15 34 19 NNE 1034,2 60 0,0
28.05.2020 13:00:00 16,9 6,7 19 11 32 17 NE 1034,8 60 0,0
28.05.2020 12:00:00 16,2 6,6 23 13 33 18 NE 1034,9 60 0,0
28.05.2020 11:00:00 15,7 6,4 23 12 33 18 NE 1035,3 60 0,0
28.05.2020 10:00:00 14,7 6,8 23 12 35 19 NE 1035,7 60 0,0
28.05.2020 09:00:00 13,4 6,5 26 14 38 20 ENE 1035,7 60 0,0
28.05.2020 08:00:00 12,8 6,3 32 18 40 22 ENE 1035,4 60 0,1
28.05.2020 07:00:00 12,7 6,8 27 14 39 21 ENE 1035,4 49 0,2
28.05.2020 06:00:00 12,9 6,9 29 15 43 23 ENE 1035,3 0 0,1
28.05.2020 05:00:00 13,2 7,0 31 17 45 24 ENE 1035,2 0 0,2
28.05.2020 04:00:00 13,8 7,6 32 17 44 24 ENE 1035,0 0 0,1
28.05.2020 03:00:00 14,3 11,3 27 15 37 20 NE 1034,8 0 0,0
28.05.2020 02:00:00 14,3 12,1 29 16 36 19 NNE 1035,3 0 0,0
28.05.2020 01:00:00 13,7 11,2 29 16 35 19 NNE 1035,4 0 0,0
28.05.2020 00:00:00 13,3 10,6 29 16 36 20 N 1035,5 0 0,0
27.05.2020 23:00:00 13,3 10,5 28 15 34 18 N 1035,4 0 0,0
27.05.2020 22:00:00 13,3 10,5 23 12 31 17 NNE 1035,2 12 0,0
27.05.2020 21:00:00 14,0 11,0 26 14 31 17 NNE 1035,3 57 0,0
27.05.2020 20:00:00 14,5 11,3 22 12 29 16 NNE 1035,4 60 0,0
27.05.2020 19:00:00 15,1 11,3 22 12 27 15 N 1035,3 60 0,0
27.05.2020 18:00:00 15,2 11,2 23 12 29 16 NNE 1035,5 60 0,0
27.05.2020 17:00:00 15,5 11,6 22 12 29 16 N 1035,7 60 0,0
27.05.2020 16:00:00 15,4 12,0 25 14 31 17 NNE 1035,8 60 0,0
27.05.2020 15:00:00 15,4 12,1 24 13 30 16 N 1036,0 60 0,0
27.05.2020 14:00:00 15,2 11,7 25 14 32 17 N 1036,0 60 0,0
27.05.2020 13:00:00 15,2 11,7 26 14 32 17 N 1036,0 60 0,0
27.05.2020 12:00:00 15,4 11,7 23 12 27 14 N 1036,0 60 0,0
27.05.2020 11:00:00 15,2 10,7 20 11 24 13 N 1035,9 60 0,0
27.05.2020 10:00:00 15,0 10,7 17 9 22 12 N 1035,8 60 0,0
27.05.2020 09:00:00 14,9 10,2 18 10 23 12 N 1036,0 60 0,0
27.05.2020 08:00:00 14,6 10,6 18 10 23 12 NNE 1035,7 60 0,0
27.05.2020 07:00:00 14,3 10,7 17 9 23 12 NNE 1035,5 50 0,0
27.05.2020 06:00:00 14,0 10,2 19 10 25 13 N 1035,2 0 0,0
27.05.2020 05:00:00 14,2 10,3 21 11 24 13 N 1035,2 0 0,0
27.05.2020 04:00:00 14,4 10,5 15 8 21 11 NNE 1035,3 0 0,0
27.05.2020 03:00:00 14,4 10,5 17 9 21 11 NNE 1035,4 0 0,0
27.05.2020 02:00:00 15,0 10,1 14 8 20 11 NNE 1035,5 0 0,0
27.05.2020 01:00:00 15,2 10,4 16 9 21 12 NNE 1035,8 0 0,0
27.05.2020 00:00:00 15,2 9,9 18 10 26 14 NNE 1035,9 0 0,0
26.05.2020 23:00:00 15,3 10,2 23 12 30 16 NNE 1035,8 0 0,0
26.05.2020 22:00:00 15,5 11,0 18 10 24 13 NNE 1035,8 2 0,0
26.05.2020 21:00:00 16,1 11,1 12 7 17 9 NNE 1035,4 60 0,0
26.05.2020 20:00:00 16,1 11,3 14 8 21 11 NNE 1035,3 60 0,0
26.05.2020 19:00:00 16,1 11,6 11 6 19 11 NNE 1035,6 60 0,0
26.05.2020 18:00:00 17,0 12,1 16 9 19 10 NNW 1035,7 60 0,0
26.05.2020 17:00:00 17,3 12,2 12 7 16 9 NNW 1035,9 60 0,0
26.05.2020 16:00:00 17,9 12,6 14 8 19 10 NNW 1035,9 60 0,0
26.05.2020 15:00:00 17,6 11,7 11 6 18 10 NNW 1036,0 60 0,0
26.05.2020 14:00:00 19,0 10,9 14 8 18 10 NNW 1036,3 60 0,0
26.05.2020 13:00:00 20,0 9,3 13 7 19 11 NW 1036,1 60 0,0
26.05.2020 12:00:00 20,2 7,6 13 7 18 10 W 1036,2 60 0,0
26.05.2020 11:00:00 19,1 12,0 8 4 13 7 SW 1036,3 60 0,0
26.05.2020 10:00:00 16,6 11,1 9 5 12 7 SSW 1036,2 60 0,0
26.05.2020 09:00:00 14,8 11,1 9 5 12 6 S 1035,9 60 0,0
26.05.2020 08:00:00 13,6 10,8 7 4 11 6 SSE 1035,9 60 0,0
26.05.2020 07:00:00 13,0 10,5 8 4 11 6 S 1035,7 17 0,0
26.05.2020 06:00:00 13,0 10,4 6 3 9 5 SSE 1035,4 0 0,0
26.05.2020 05:00:00 13,2 10,1 4 2 9 5 SSE 1035,4 0 0,0
26.05.2020 04:00:00 14,1 10,8 8 4 9 5 ESE 1035,7 0 0,0
26.05.2020 03:00:00 14,3 10,5 4 2 8 5 NE 1035,7 0 0,0
26.05.2020 02:00:00 14,3 9,7 4 2 8 4 N 1035,5 0 0,0
26.05.2020 01:00:00 14,4 9,8 5 3 10 5 SE 1035,3 0 0,0

tt = Température de l'air
td = dewpoint
ff = Vitesse du vent
fx = gusts
dd = Direction du vent
ppp = reduced air pressure
sd = Ensoleillement
rr = Quantités de précipitations

stations d'obs. à proximité